Terminal Aerodrome Forecast
Issued by NWS

Home | Current Version | Previous Version | Text Only | Print | Product List | Glossary On
Versions: 1 2 3 4 5 6 7 8 9 10 11 12 13 14 15 16 17
000
FTUS45 KGJT 300537
TAFVEL
TAF
KVEL 300537Z 3006/0106 05006KT P6SM FEW070
     FM301500 15004KT P6SM SCT100
     FM302000 32008G18KT P6SM BKN090
     FM010200 33006KT P6SM BKN080=

USA.gov is the U.S. government's official web portal to all federal, state and local government web resources and services.